Time;durP1;ratioP1;P1;durP2;ratioP2;P2;SDS_P1;SDS_P2;PMS_P1;PMS_P2;Temp;Humidity;BMP_temperature;BMP_pressure;BME280_temperature;BME280_humidity;BME280_pressure;Samples;Min_cycle;Max_cycle;Signal;HPM_P1;HPM_P2
2021/10/11 00:00:11;;;;;;;0.05;0.05;;;;;;;15.18;67.42;102783.59;5089772;28;20034;-80
2021/10/11 00:02:38;;;;;;;0.10;0.10;;;;;;;15.17;67.23;102776.50;5094417;28;20465;-80
2021/10/11 00:05:04;;;;;;;0.10;0.10;;;;;;;15.12;67.20;102778.31;5093980;28;20032;-82
2021/10/11 00:07:31;;;;;;;0.10;0.10;;;;;;;15.04;67.51;102774.81;5093989;28;20028;-79
2021/10/11 00:09:59;;;;;;;0.10;0.10;;;;;;;15.00;67.51;102773.06;5106039;22;20394;-83
2021/10/11 00:12:25;;;;;;;0.00;0.00;;;;;;;15.04;67.22;102781.06;5093913;28;20040;-82
2021/10/11 00:14:52;;;;;;;0.10;0.10;;;;;;;15.04;67.42;102786.38;5094417;28;20056;-83
2021/10/11 00:17:20;;;;;;;0.10;0.10;;;;;;;15.03;67.39;102791.75;5091701;28;20032;-82
2021/10/11 00:19:50;;;;;;;0.00;0.00;;;;;;;14.99;67.28;102790.88;5085187;28;20025;-82
2021/10/11 00:22:20;;;;;;;0.10;0.10;;;;;;;14.99;67.44;102792.66;5085095;28;20080;-81
2021/10/11 00:24:50;;;;;;;0.10;0.10;;;;;;;14.98;67.66;102790.91;5085827;28;20024;-81
2021/10/11 00:27:23;;;;;;;0.10;0.10;;;;;;;14.99;67.40;102789.97;5083317;28;20027;-82
2021/10/11 00:29:49;;;;;;;0.05;0.05;;;;;;;14.91;67.84;102789.16;5084960;28;20387;-83
2021/10/11 00:32:16;;;;;;;0.10;0.10;;;;;;;14.88;67.49;102796.28;5092933;28;20032;-83
2021/10/11 00:34:43;;;;;;;0.10;0.10;;;;;;;14.84;67.77;102791.88;5085492;28;20509;-81
2021/10/11 00:37:10;;;;;;;0.10;0.10;;;;;;;14.83;67.13;102782.09;5087563;28;20038;-82
2021/10/11 00:39:36;;;;;;;0.00;0.00;;;;;;;14.79;67.29;102788.34;5087585;28;20040;-83
2021/10/11 00:42:03;;;;;;;0.10;0.10;;;;;;;14.77;67.19;102786.59;5088635;28;20420;-83
2021/10/11 00:44:29;;;;;;;0.15;0.15;;;;;;;14.69;67.17;102783.94;5086976;28;20384;-83
2021/10/11 00:46:56;;;;;;;0.13;0.13;;;;;;;14.68;67.61;102784.88;5083425;28;20020;-83
2021/10/11 00:49:23;;;;;;;0.10;0.10;;;;;;;14.62;67.38;102795.53;5081688;28;20363;-82
2021/10/11 00:51:49;;;;;;;0.10;0.10;;;;;;;14.65;67.17;102782.22;5084833;28;20443;-83
2021/10/11 00:54:17;;;;;;;0.10;0.10;;;;;;;14.64;67.36;102791.06;5083206;28;20494;-83
2021/10/11 00:56:44;;;;;;;0.10;0.10;;;;;;;14.64;67.74;102797.31;5079450;28;20475;-83
2021/10/11 00:59:11;;;;;;;0.10;0.10;;;;;;;14.65;67.54;102792.88;5073114;28;20029;-83
2021/10/11 01:01:38;;;;;;;0.10;0.10;;;;;;;14.69;67.63;102791.94;5085850;28;20020;-83
2021/10/11 01:04:06;;;;;;;0.10;0.10;;;;;;;14.75;67.55;102807.94;5113391;28;20031;-83
2021/10/11 01:06:36;;;;;;;0.10;0.10;;;;;;;14.68;68.04;102798.22;5092475;28;20129;-83
2021/10/11 01:09:05;;;;;;;0.10;0.10;;;;;;;14.75;67.68;102799.91;5087323;28;20513;-81
2021/10/11 01:11:32;;;;;;;0.08;0.08;;;;;;;14.75;67.76;102799.06;5092962;28;20032;-81
2021/10/11 01:13:59;;;;;;;0.10;0.10;;;;;;;14.77;67.43;102794.59;5093393;28;20122;-83
2021/10/11 01:16:26;;;;;;;0.10;0.10;;;;;;;14.76;67.25;102796.38;5092602;28;20032;-83
2021/10/11 01:18:52;;;;;;;0.10;0.10;;;;;;;14.71;67.51;102795.50;5093191;28;20035;-84
2021/10/11 01:21:19;;;;;;;0.82;0.80;;;;;;;14.69;67.19;102795.53;5093634;28;20029;-83
2021/10/11 01:23:45;;;;;;;0.10;0.10;;;;;;;14.63;67.25;102797.28;5093287;28;20115;-83
2021/10/11 01:26:12;;;;;;;0.10;0.10;;;;;;;14.67;67.26;102797.31;5093301;28;20034;-83
2021/10/11 01:28:38;;;;;;;0.10;0.10;;;;;;;14.74;66.92;102791.94;5093632;28;20035;-83
2021/10/11 01:31:05;;;;;;;0.10;0.10;;;;;;;14.67;67.17;102785.75;5093086;28;20067;-83
2021/10/11 01:33:32;;;;;;;0.10;0.10;;;;;;;14.67;66.84;102791.97;5085461;28;20421;-83
2021/10/11 01:35:58;;;;;;;0.10;0.10;;;;;;;14.60;66.60;102794.66;5082262;28;20382;-83
2021/10/11 01:38:24;;;;;;;0.10;0.10;;;;;;;14.59;66.55;102795.53;5085535;28;20024;-83
2021/10/11 01:40:51;;;;;;;4.20;2.40;;;;;;;14.48;66.50;102795.59;5092564;22;20051;-82
2021/10/11 01:43:17;;;;;;;0.08;0.08;;;;;;;14.39;66.49;102796.53;5073722;28;20028;-85
2021/10/11 01:45:49;;;;;;;0.10;0.10;;;;;;;14.34;66.52;102787.66;5072615;28;20029;-87
2021/10/11 01:48:15;;;;;;;0.10;0.10;;;;;;;14.28;66.53;102790.34;5056058;28;20119;-88
2021/10/11 01:50:42;;;;;;;0.10;0.10;;;;;;;14.28;66.13;102790.34;5073540;28;20024;-90
2021/10/11 01:53:09;;;;;;;0.10;0.10;;;;;;;14.22;66.25;102784.16;5073523;28;20024;-86
2021/10/11 01:55:35;;;;;;;0.10;0.10;;;;;;;14.18;66.04;102782.41;5073049;28;20039;-87
2021/10/11 01:58:02;;;;;;;0.10;0.10;;;;;;;14.06;66.11;102777.13;5073810;28;20104;-88
2021/10/11 02:00:28;;;;;;;0.10;0.10;;;;;;;13.97;66.54;102779.81;5076595;28;20368;-88
2021/10/11 02:02:54;;;;;;;0.10;0.10;;;;;;;13.93;66.19;102786.91;5076194;28;20036;-90
2021/10/11 02:05:21;;;;;;;0.20;0.20;;;;;;;13.86;66.47;102787.84;5076800;28;20162;-90
2021/10/11 02:07:47;;;;;;;0.10;0.10;;;;;;;13.84;66.59;102782.50;5076636;28;20029;-89
2021/10/11 02:10:14;;;;;;;0.20;0.20;;;;;;;13.78;66.22;102789.63;5076516;28;20040;-88
2021/10/11 02:12:40;;;;;;;0.10;0.10;;;;;;;13.74;66.40;102786.09;5065165;28;20029;-91
2021/10/11 02:15:07;;;;;;;0.00;0.00;;;;;;;13.73;66.05;102778.97;5074406;28;20024;-89
2021/10/11 02:17:34;;;;;;;0.10;0.10;;;;;;;13.68;66.06;102778.09;5075935;28;20391;-87
2021/10/11 02:20:00;;;;;;;0.10;0.10;;;;;;;13.64;66.10;102779.00;5076261;28;20390;-90
2021/10/11 02:22:27;;;;;;;0.22;0.22;;;;;;;13.63;66.12;102783.44;5076101;28;20523;-90
2021/10/11 02:24:53;;;;;;;0.10;0.10;;;;;;;13.52;66.06;102783.47;5075064;28;20391;-88
2021/10/11 02:27:20;;;;;;;0.10;0.10;;;;;;;13.50;65.99;102777.25;5076086;28;20058;-88
2021/10/11 02:29:46;;;;;;;0.10;0.10;;;;;;;13.46;66.06;102786.16;5075893;28;20559;-90
2021/10/11 02:32:12;;;;;;;0.10;0.10;;;;;;;13.43;65.75;102787.03;5076412;28;20123;-85
2021/10/11 02:34:40;;;;;;;0.20;0.20;;;;;;;13.40;65.91;102776.38;5075429;28;20090;-87
2021/10/11 02:37:07;;;;;;;0.10;0.10;;;;;;;13.35;66.36;102774.59;5076024;28;20033;-81
2021/10/11 02:39:33;;;;;;;0.10;0.10;;;;;;;13.35;66.34;102771.91;5057842;28;20044;-83
2021/10/11 02:41:59;;;;;;;0.10;0.10;;;;;;;13.34;65.65;102768.34;5075500;28;20361;-82
2021/10/11 02:44:26;;;;;;;0.10;0.10;;;;;;;13.33;66.07;102773.69;5075791;28;20031;-84
2021/10/11 02:46:52;;;;;;;0.10;0.10;;;;;;;13.29;65.92;102763.94;5058040;28;20040;-83
2021/10/11 02:49:19;;;;;;;2.15;2.05;;;;;;;13.29;65.59;102758.63;5075629;28;20032;-86
2021/10/11 02:51:45;;;;;;;0.10;0.10;;;;;;;13.22;66.07;102765.69;5075951;28;20028;-88
2021/10/11 02:54:16;;;;;;;0.10;0.10;;;;;;;13.20;65.87;102760.38;5075826;28;20051;-81
2021/10/11 02:56:44;;;;;;;0.10;0.10;;;;;;;13.10;66.34;102751.50;5075686;28;20154;-82
2021/10/11 02:59:11;;;;;;;0.10;0.10;;;;;;;13.12;66.59;102759.47;5075410;28;20081;-81
2021/10/11 03:01:38;;;;;;;0.10;0.10;;;;;;;13.13;65.97;102755.94;5075587;28;20387;-81
2021/10/11 03:04:04;;;;;;;0.10;0.10;;;;;;;13.13;66.14;102747.94;5075453;28;20039;-81
2021/10/11 03:06:31;;;;;;;0.10;0.10;;;;;;;13.09;66.19;102748.84;5074748;28;20052;-82
2021/10/11 03:08:57;;;;;;;0.03;0.03;;;;;;;13.06;65.83;102744.41;5075662;28;20084;-82
2021/10/11 03:11:23;;;;;;;0.10;0.10;;;;;;;13.06;65.82;102743.50;5075058;28;20059;-81
2021/10/11 03:13:50;;;;;;;0.10;0.10;;;;;;;13.03;66.37;102748.84;5075497;28;20036;-80
2021/10/11 03:16:16;;;;;;;0.10;0.10;;;;;;;13.02;66.02;102752.38;5075426;28;20038;-80
2021/10/11 03:18:42;;;;;;;0.10;0.10;;;;;;;12.98;66.19;102747.97;5076296;28;20055;-89
2021/10/11 03:21:09;;;;;;;0.10;0.10;;;;;;;12.94;66.10;102747.94;5075123;28;20029;-85
2021/10/11 03:23:35;;;;;;;0.00;0.00;;;;;;;12.90;65.50;102754.16;5069617;28;20102;-87
2021/10/11 03:26:01;;;;;;;0.00;0.00;;;;;;;12.85;66.15;102755.94;5043708;28;20033;-90
2021/10/11 03:28:28;;;;;;;0.10;0.10;;;;;;;12.83;66.10;102752.38;5054731;28;20075;-87
2021/10/11 03:30:54;;;;;;;0.93;0.90;;;;;;;12.77;66.89;102755.03;5073386;28;20064;-91
2021/10/11 03:33:21;;;;;;;0.10;0.10;;;;;;;12.84;66.51;102747.97;5076207;28;20032;-81
2021/10/11 03:35:47;;;;;;;0.10;0.10;;;;;;;12.86;66.42;102748.81;5074878;28;20028;-83
2021/10/11 03:38:13;;;;;;;0.10;0.10;;;;;;;12.84;66.35;102750.63;5075220;28;20021;-82
2021/10/11 03:40:39;;;;;;;0.10;0.10;;;;;;;12.87;66.14;102754.16;5075228;28;20032;-81
2021/10/11 03:43:05;;;;;;;0.10;0.10;;;;;;;12.90;66.61;102746.19;5074992;28;20580;-81
2021/10/11 03:45:32;;;;;;;0.10;0.10;;;;;;;12.98;67.19;102742.66;5074582;28;20037;-81
2021/10/11 03:47:58;;;;;;;0.00;0.00;;;;;;;13.02;66.64;102745.31;5074785;28;20099;-80
2021/10/11 03:50:24;;;;;;;0.10;0.10;;;;;;;13.11;67.09;102757.72;5074550;28;20029;-82
2021/10/11 03:52:50;;;;;;;0.20;0.20;;;;;;;13.17;66.64;102757.72;5074543;28;20102;-82
2021/10/11 03:55:17;;;;;;;0.10;0.10;;;;;;;13.23;67.33;102751.50;5073583;28;20032;-82
2021/10/11 03:57:43;;;;;;;0.10;0.10;;;;;;;13.27;67.34;102747.94;5074510;28;20029;-82
2021/10/11 04:00:10;;;;;;;0.00;0.00;;;;;;;13.35;67.10;102751.50;5074687;28;20031;-83
2021/10/11 04:02:36;;;;;;;0.10;0.10;;;;;;;13.42;67.42;102749.72;5074366;28;20028;-81
2021/10/11 04:05:03;;;;;;;0.00;0.00;;;;;;;13.47;67.03;102745.31;5074267;28;20024;-84
2021/10/11 04:07:30;;;;;;;0.10;0.10;;;;;;;13.53;67.08;102747.97;5074196;28;20033;-82
2021/10/11 04:09:59;;;;;;;0.10;0.10;;;;;;;13.58;67.12;102743.53;5072923;28;20494;-81
2021/10/11 04:12:33;;;;;;;0.10;0.10;;;;;;;13.61;67.06;102747.03;5074167;28;20020;-82
2021/10/11 04:15:00;;;;;;;0.03;0.03;;;;;;;13.63;67.13;102751.47;5074379;28;20033;-84
2021/10/11 04:17:27;;;;;;;0.10;0.10;;;;;;;13.70;67.43;102752.38;5074177;28;20103;-85
2021/10/11 04:19:53;;;;;;;0.10;0.10;;;;;;;13.73;67.27;102757.66;5073725;28;20032;-85
2021/10/11 04:22:19;;;;;;;0.10;0.10;;;;;;;13.75;67.34;102753.22;5074152;28;20028;-86
2021/10/11 04:24:46;;;;;;;0.00;0.00;;;;;;;13.79;66.96;102749.66;5055847;28;20468;-87
2021/10/11 04:27:12;;;;;;;0.10;0.10;;;;;;;13.81;66.83;102745.22;5073883;28;20033;-85
2021/10/11 04:29:38;;;;;;;0.10;0.10;;;;;;;13.83;67.33;102750.53;5073501;28;20020;-85
2021/10/11 04:32:05;;;;;;;0.10;0.10;;;;;;;13.84;67.13;102742.53;5073919;28;20060;-82
2021/10/11 04:34:32;;;;;;;0.10;0.10;;;;;;;13.91;66.86;102741.63;5066485;28;20089;-88
2021/10/11 04:36:58;;;;;;;0.10;0.10;;;;;;;13.90;66.95;102747.84;5065026;28;20033;-86
2021/10/11 04:39:24;;;;;;;2.03;1.15;;;;;;;13.81;65.56;102744.34;5075631;22;20119;-82
2021/10/11 04:41:50;;;;;;;0.10;0.10;;;;;;;13.86;65.98;102746.09;5090378;28;20028;-82
2021/10/11 04:44:17;;;;;;;0.10;0.10;;;;;;;13.85;65.68;102746.97;5093420;28;20032;-82
2021/10/11 04:46:43;;;;;;;0.30;0.30;;;;;;;13.83;66.46;102734.56;5093792;28;20036;-81
2021/10/11 04:49:09;;;;;;;0.00;0.00;;;;;;;13.86;66.57;102732.78;5092037;28;20039;-82
2021/10/11 04:51:35;;;;;;;0.10;0.10;;;;;;;13.93;66.60;102719.44;5082091;28;20115;-82
2021/10/11 04:54:01;;;;;;;0.10;0.10;;;;;;;13.95;66.69;102722.97;5088072;28;20032;-83
2021/10/11 04:56:27;;;;;;;0.10;0.10;;;;;;;13.98;66.47;102728.28;5096732;28;20021;-82
2021/10/11 04:58:54;;;;;;;0.10;0.10;;;;;;;13.98;66.40;102728.28;5072942;28;20029;-82
2021/10/11 05:01:21;;;;;;;0.10;0.10;;;;;;;13.98;66.80;102730.94;5095373;28;20366;-82
2021/10/11 05:03:47;;;;;;;0.10;0.10;;;;;;;13.96;66.89;102730.09;5093134;28;20028;-82
2021/10/11 05:06:13;;;;;;;0.10;0.10;;;;;;;13.96;66.66;102732.75;5092877;28;20513;-82
2021/10/11 05:08:39;;;;;;;0.10;0.10;;;;;;;13.95;66.56;102736.31;5093188;28;20028;-82
2021/10/11 05:11:06;;;;;;;0.10;0.10;;;;;;;13.91;66.53;102743.41;5093377;28;20391;-82
2021/10/11 05:13:33;;;;;;;0.38;0.38;;;;;;;13.93;66.72;102743.41;5089098;28;20158;-81
2021/10/11 05:15:59;;;;;;;0.10;0.10;;;;;;;13.93;66.62;102741.63;5093072;28;20379;-82
2021/10/11 05:18:26;;;;;;;0.10;0.10;;;;;;;13.98;66.54;102745.19;5107877;28;20471;-82
2021/10/11 05:20:52;;;;;;;3.30;2.50;;;;;;;13.97;66.22;102739.81;5113230;28;20042;-82
2021/10/11 05:23:19;;;;;;;0.10;0.10;;;;;;;13.95;66.18;102738.97;5113795;28;20023;-83
2021/10/11 05:25:46;;;;;;;0.10;0.10;;;;;;;13.83;66.08;102738.13;5113588;28;20117;-81
2021/10/11 05:28:12;;;;;;;0.10;0.10;;;;;;;13.80;66.64;102742.56;5109234;28;20043;-82
2021/10/11 05:30:40;;;;;;;0.10;0.10;;;;;;;13.74;66.89;102743.47;5101088;28;20059;-82
2021/10/11 05:33:08;;;;;;;0.10;0.10;;;;;;;13.69;66.68;102732.81;5114409;28;20028;-83
2021/10/11 05:35:45;;;;;;;0.10;0.10;;;;;;;13.74;66.83;102740.81;5099632;28;20470;-83
2021/10/11 05:38:11;;;;;;;0.10;0.10;;;;;;;13.74;66.39;102743.47;5097062;28;20028;-82
2021/10/11 05:40:37;;;;;;;0.10;0.10;;;;;;;13.74;66.28;102747.03;5112641;28;20042;-83
2021/10/11 05:43:04;;;;;;;0.10;0.10;;;;;;;13.67;66.79;102747.03;5102801;28;20111;-82
2021/10/11 05:45:30;;;;;;;0.10;0.10;;;;;;;13.68;66.57;102756.78;5084782;28;20056;-83
2021/10/11 05:47:56;;;;;;;0.10;0.10;;;;;;;13.67;66.82;102747.94;5087995;28;20033;-82
2021/10/11 05:50:22;;;;;;;0.10;0.10;;;;;;;13.66;66.36;102742.63;5076558;28;20067;-83
2021/10/11 05:52:48;;;;;;;0.10;0.10;;;;;;;13.63;66.67;102739.94;5076400;28;20035;-84
2021/10/11 05:55:14;;;;;;;0.10;0.10;;;;;;;13.67;66.96;102736.38;5076721;28;20028;-84
2021/10/11 05:57:41;;;;;;;0.10;0.10;;;;;;;13.68;67.13;102746.16;5076408;28;20067;-83
2021/10/11 06:00:08;;;;;;;0.10;0.10;;;;;;;13.66;66.57;102739.94;5088965;28;20375;-84
2021/10/11 06:02:34;;;;;;;0.10;0.10;;;;;;;13.64;66.85;102739.94;5113023;28;20027;-84
2021/10/11 06:05:01;;;;;;;0.10;0.10;;;;;;;13.68;66.46;102754.13;5096265;28;20387;-83
2021/10/11 06:07:28;;;;;;;0.10;0.10;;;;;;;13.64;66.78;102747.94;5096467;28;20024;-83
2021/10/11 06:09:55;;;;;;;0.10;0.10;;;;;;;13.64;67.04;102749.72;5102648;22;20119;-80
2021/10/11 06:12:21;;;;;;;0.10;0.10;;;;;;;13.59;66.62;102750.63;5076733;28;20054;-83
2021/10/11 06:14:47;;;;;;;0.10;0.10;;;;;;;13.65;66.91;102763.03;5077095;28;20024;-81
2021/10/11 06:17:15;;;;;;;0.00;0.00;;;;;;;13.63;67.20;102756.81;5076380;28;20037;-82
2021/10/11 06:19:44;;;;;;;0.10;0.10;;;;;;;13.71;67.03;102759.47;5076314;28;20052;-86
2021/10/11 06:22:12;;;;;;;0.10;0.10;;;;;;;13.71;66.85;102762.13;5076094;28;20086;-81
2021/10/11 06:24:38;;;;;;;0.10;0.10;;;;;;;13.78;66.84;102766.53;5076813;28;20086;-89
2021/10/11 06:27:05;;;;;;;0.10;0.10;;;;;;;13.84;66.92;102760.31;5076907;28;20468;-90
2021/10/11 06:29:31;;;;;;;0.10;0.10;;;;;;;13.90;66.94;102761.16;5076863;28;20047;-87
2021/10/11 06:31:57;;;;;;;0.10;0.10;;;;;;;13.96;66.65;102762.94;5058270;28;20035;-88
2021/10/11 06:34:23;;;;;;;0.10;0.10;;;;;;;13.96;66.85;102757.63;5076474;28;20050;-87
2021/10/11 06:36:49;;;;;;;0.10;0.10;;;;;;;14.02;67.11;102764.72;5076654;28;20024;-88
2021/10/11 06:39:15;;;;;;;0.10;0.10;;;;;;;14.10;67.15;102759.34;5076065;28;20036;-88
2021/10/11 06:41:42;;;;;;;0.00;0.00;;;;;;;14.14;67.53;102759.31;5076233;28;20033;-82
2021/10/11 06:44:08;;;;;;;0.00;0.00;;;;;;;14.20;67.45;102764.59;5075970;28;20110;-86
2021/10/11 06:46:34;;;;;;;0.10;0.10;;;;;;;14.22;67.17;102768.16;5076413;28;20550;-84
2021/10/11 06:49:00;;;;;;;0.10;0.10;;;;;;;14.22;67.14;102770.84;5076213;28;20517;-86
2021/10/11 06:51:26;;;;;;;0.10;0.10;;;;;;;14.31;67.09;102771.69;5076446;28;20074;-85
2021/10/11 06:53:53;;;;;;;0.00;0.00;;;;;;;14.33;67.28;102780.56;5075810;28;20029;-87
2021/10/11 06:56:19;;;;;;;0.10;0.10;;;;;;;14.36;67.24;102780.56;5075159;28;20042;-86
2021/10/11 06:58:45;;;;;;;0.10;0.10;;;;;;;14.44;67.12;102780.50;5076243;28;20035;-83
2021/10/11 07:01:12;;;;;;;0.10;0.10;;;;;;;14.48;67.24;102785.84;5075484;28;20383;-89
2021/10/11 07:03:39;;;;;;;0.10;0.10;;;;;;;14.54;67.07;102791.13;5075448;28;20052;-85
2021/10/11 07:06:07;;;;;;;1.98;0.77;;;;;;;14.57;66.96;102793.75;5075809;28;20032;-88
2021/10/11 07:08:34;;;;;;;0.10;0.10;;;;;;;14.61;66.88;102791.09;5076086;28;20529;-90
2021/10/11 07:11:01;;;;;;;0.10;0.10;;;;;;;14.63;66.86;102794.63;5074940;28;20491;-87
2021/10/11 07:13:27;;;;;;;0.10;0.10;;;;;;;14.67;66.85;102796.44;5075922;28;20024;-90
2021/10/11 07:15:53;;;;;;;0.10;0.10;;;;;;;14.75;66.69;102793.72;5075465;28;20146;-90
2021/10/11 07:18:21;;;;;;;0.10;0.10;;;;;;;14.80;66.77;102792.78;5075254;28;20027;-89
2021/10/11 07:20:51;;;;;;;0.13;0.13;;;;;;;14.80;66.70;102806.09;5075204;28;20400;-87
2021/10/11 07:23:17;;;;;;;0.10;0.10;;;;;;;14.91;66.52;102800.72;5075053;28;20111;-89
2021/10/11 07:25:44;;;;;;;0.10;0.10;;;;;;;14.98;66.53;102801.56;5075629;28;20032;-89
2021/10/11 07:28:10;;;;;;;0.08;0.08;;;;;;;14.99;66.62;102798.88;5075343;28;20082;-90
2021/10/11 07:30:36;;;;;;;0.10;0.10;;;;;;;15.03;66.64;102810.44;5074738;28;20483;-85
2021/10/11 07:33:05;;;;;;;0.10;0.10;;;;;;;15.09;66.53;102806.81;5074773;28;20098;-89
2021/10/11 07:35:32;;;;;;;0.10;0.10;;;;;;;15.18;66.17;102814.78;5075554;28;20371;-79
2021/10/11 07:37:59;;;;;;;0.10;0.10;;;;;;;15.23;66.26;102814.72;5074691;28;20099;-84
2021/10/11 07:40:26;;;;;;;0.10;0.10;;;;;;;15.29;66.12;102812.00;5057290;28;20491;-81
2021/10/11 07:42:52;;;;;;;0.00;0.00;;;;;;;15.30;66.29;102809.34;5075012;28;20031;-84
2021/10/11 07:45:18;;;;;;;0.10;0.10;;;;;;;15.35;66.18;102818.19;5074760;28;20063;-86
2021/10/11 07:47:45;;;;;;;0.10;0.10;;;;;;;15.41;66.09;102816.38;5074847;28;20066;-87
2021/10/11 07:50:11;;;;;;;0.10;0.10;;;;;;;15.51;66.00;102816.28;5074928;28;20020;-85
2021/10/11 07:52:38;;;;;;;0.00;0.00;;;;;;;15.56;65.93;102821.56;5075057;28;20036;-87
2021/10/11 07:55:04;;;;;;;0.10;0.10;;;;;;;15.63;66.09;102811.72;5074702;28;20052;-86
2021/10/11 07:57:33;;;;;;;0.10;0.10;;;;;;;15.66;65.68;102809.91;5075009;28;20029;-86
2021/10/11 08:00:01;;;;;;;0.10;0.10;;;;;;;15.74;65.79;102815.16;5075273;28;20036;-88
2021/10/11 08:02:27;;;;;;;0.10;0.10;;;;;;;15.81;65.77;102822.22;5074972;28;20040;-88
2021/10/11 08:04:53;;;;;;;0.10;0.10;;;;;;;15.87;65.59;102820.41;5075943;28;20029;-90
2021/10/11 08:07:19;;;;;;;0.10;0.10;;;;;;;15.94;65.50;102822.13;5077268;28;20021;-85
2021/10/11 08:09:45;;;;;;;0.00;0.00;;;;;;;16.04;65.23;102829.13;5086750;28;20047;-88
2021/10/11 08:12:11;;;;;;;0.10;0.10;;;;;;;16.12;65.15;102819.22;5090629;28;20036;-87
2021/10/11 08:14:37;;;;;;;0.10;0.10;;;;;;;16.19;65.59;102822.72;5084224;28;20036;-82
2021/10/11 08:17:04;;;;;;;0.10;0.10;;;;;;;16.26;65.24;102823.53;5073827;28;20035;-90
2021/10/11 08:19:30;;;;;;;0.65;0.35;;;;;;;16.29;64.63;102828.84;5070349;28;20040;-87
2021/10/11 08:21:56;;;;;;;0.10;0.10;;;;;;;16.30;64.75;102833.31;5071578;28;20035;-90
2021/10/11 08:24:22;;;;;;;0.10;0.10;;;;;;;16.25;64.38;102835.13;5085725;28;20028;-89
2021/10/11 08:26:48;;;;;;;0.10;0.10;;;;;;;16.32;64.72;102836.81;5074130;28;20498;-88
2021/10/11 08:29:14;;;;;;;0.10;0.10;;;;;;;16.38;64.71;102834.06;5082667;28;20114;-87
2021/10/11 08:31:41;;;;;;;0.65;0.65;;;;;;;16.45;65.20;102834.91;5079556;28;20086;-85
2021/10/11 08:34:07;;;;;;;0.10;0.10;;;;;;;16.54;64.79;102836.56;5070068;28;20037;-91
2021/10/11 08:36:33;;;;;;;0.10;0.10;;;;;;;16.60;64.24;102840.03;5063760;28;20028;-88
2021/10/11 08:38:59;;;;;;;0.10;0.10;;;;;;;16.65;63.86;102838.19;5060152;28;20025;-90
2021/10/11 08:41:26;;;;;;;0.70;0.70;;;;;;;16.80;63.77;102842.44;5071909;28;20052;-87
2021/10/11 08:43:52;;;;;;;0.10;0.10;;;;;;;16.88;63.97;102825.38;5071363;28;20479;-90
2021/10/11 08:46:18;;;;;;;0.10;0.10;;;;;;;16.96;62.58;102828.88;5071300;28;20103;-88
2021/10/11 08:48:44;;;;;;;0.10;0.10;;;;;;;17.09;62.70;102837.59;5071749;28;20101;-87
2021/10/11 08:51:12;;;;;;;0.10;0.10;;;;;;;17.09;61.16;102833.09;5068760;28;20062;-88
2021/10/11 08:53:39;;;;;;;0.20;0.20;;;;;;;17.20;62.04;102829.41;5065202;28;20043;-84
2021/10/11 08:56:05;;;;;;;0.10;0.10;;;;;;;17.22;61.72;102827.56;5072339;28;20031;-84
2021/10/11 08:58:52;;;;;;;6.32;3.20;;;;;;;17.38;61.50;102821.03;5072541;28;20032;-86
2021/10/11 09:01:23;;;;;;;0.10;0.10;;;;;;;17.33;61.15;102817.53;5071829;28;20047;-88
2021/10/11 09:03:50;;;;;;;0.10;0.10;;;;;;;17.41;62.30;102820.13;5054578;28;20029;-88
2021/10/11 09:06:16;;;;;;;0.43;0.43;;;;;;;17.53;60.71;102822.56;5064877;28;20119;-88
2021/10/11 09:08:43;;;;;;;0.10;0.10;;;;;;;17.57;61.02;102824.28;5041997;28;20392;-86
2021/10/11 09:11:11;;;;;;;0.10;0.10;;;;;;;17.63;60.31;102823.28;5103603;22;20052;-83
2021/10/11 09:13:44;;;;;;;0.05;0.05;;;;;;;17.67;60.37;102825.00;5094971;28;20040;-84
2021/10/11 09:16:29;;;;;;;0.10;0.10;;;;;;;17.77;59.92;102837.31;5091480;28;20031;-83
2021/10/11 09:19:07;;;;;;;0.08;0.08;;;;;;;17.77;61.71;102839.13;5093701;28;20028;-84
2021/10/11 09:21:38;;;;;;;0.00;0.00;;;;;;;17.81;60.85;102837.25;5080501;28;20028;-82
2021/10/11 09:26:58;;;;;;;0.28;0.28;;;;;;;17.78;60.90;102839.09;5071944;27;20461;-83
2021/10/11 09:29:30;;;;;;;0.20;0.20;;;;;;;17.87;60.38;102850.53;5067218;28;20087;-85
2021/10/11 09:32:01;;;;;;;;;;;;;;;17.94;58.63;102846.88;5057023;28;20031;-83
2021/10/11 09:34:27;;;;;;;0.10;0.10;;;;;;;17.84;59.26;102842.56;5059043;28;19943;-83
2021/10/11 09:37:04;;;;;;;0.10;0.10;;;;;;;17.79;60.45;102839.97;5057014;28;20478;-84
2021/10/11 09:39:33;;;;;;;0.10;0.10;;;;;;;17.66;59.16;102836.63;5061131;28;20353;-84
2021/10/11 09:42:01;;;;;;;0.10;0.10;;;;;;;17.74;59.13;102836.50;5054085;28;20518;-83
2021/10/11 09:44:27;;;;;;;0.10;0.10;;;;;;;17.68;59.38;102845.53;5067012;28;20107;-84
2021/10/11 09:46:57;;;;;;;0.40;0.40;;;;;;;17.82;59.59;102841.72;5055791;28;20053;-84
2021/10/11 09:49:25;;;;;;;0.70;0.70;;;;;;;17.95;60.01;102846.84;5048426;28;20029;-82
2021/10/11 09:51:58;;;;;;;0.10;0.10;;;;;;;18.10;59.38;102845.66;5049697;28;20039;-83
2021/10/11 09:54:25;;;;;;;0.10;0.10;;;;;;;18.08;59.33;102847.50;5048909;28;20029;-83
2021/10/11 09:56:51;;;;;;;0.10;0.10;;;;;;;18.15;57.99;102850.94;5049337;28;20075;-82
2021/10/11 09:59:18;;;;;;;2.75;0.98;;;;;;;18.27;58.68;102836.41;5053221;28;20044;-84
2021/10/11 10:01:46;;;;;;;0.10;0.10;;;;;;;18.35;58.51;102844.28;5063220;28;20033;-83
2021/10/11 10:04:34;;;;;;;0.10;0.10;;;;;;;18.54;57.83;102839.41;5057259;28;20025;-84
2021/10/11 10:07:04;;;;;;;0.10;0.10;;;;;;;18.54;56.77;102837.63;5048957;28;20025;-85
2021/10/11 10:09:30;;;;;;;0.10;0.10;;;;;;;18.64;57.95;102840.09;5067563;28;20120;-84
2021/10/11 10:12:03;;;;;;;0.10;0.10;;;;;;;18.35;54.65;102831.75;5068686;28;20033;-83
2021/10/11 10:14:33;;;;;;;0.10;0.10;;;;;;;18.45;55.67;102834.25;5067192;28;20029;-83
2021/10/11 10:16:59;;;;;;;0.10;0.10;;;;;;;18.35;56.15;102833.56;5049997;28;20369;-83
2021/10/11 10:19:36;;;;;;;0.10;0.10;;;;;;;18.35;56.59;102834.44;5063677;28;20418;-84
2021/10/11 10:22:16;;;;;;;0.30;0.30;;;;;;;18.29;56.80;102823.81;5059717;28;20033;-86
2021/10/11 10:24:43;;;;;;;0.00;0.00;;;;;;;18.32;55.95;102828.25;5051851;28;20124;-82
2021/10/11 10:27:13;;;;;;;0.10;0.10;;;;;;;18.46;56.52;102820.78;5053456;28;20022;-88
2021/10/11 10:29:49;;;;;;;0.10;0.10;;;;;;;18.57;54.88;102823.25;5047771;28;20071;-84
2021/10/11 10:32:18;;;;;;;0.10;0.10;;;;;;;18.63;54.96;102830.25;5047664;28;20033;-85
2021/10/11 10:34:57;;;;;;;0.10;0.10;;;;;;;18.78;55.94;102832.63;5047031;28;20072;-83
2021/10/11 10:37:34;;;;;;;0.10;0.10;;;;;;;18.93;55.34;102826.03;5038299;28;20033;-86
2021/10/11 10:40:08;;;;;;;0.10;0.10;;;;;;;19.04;54.29;102829.34;5034855;28;20033;-85
2021/10/11 10:42:35;;;;;;;0.10;0.10;;;;;;;19.24;53.50;102819.94;5034450;28;20034;-84
2021/10/11 10:45:02;;;;;;;0.10;0.10;;;;;;;19.35;52.11;102825.00;5034343;28;20041;-85
2021/10/11 10:47:33;;;;;;;3.20;1.95;;;;;;;19.30;52.95;102825.16;5034141;28;20033;-84
2021/10/11 10:50:00;;;;;;;0.10;0.10;;;;;;;19.29;51.88;102830.53;5040641;28;20026;-85
2021/10/11 10:52:26;;;;;;;0.10;0.10;;;;;;;19.28;52.14;102831.47;5039709;28;20021;-85
2021/10/11 10:54:55;;;;;;;0.10;0.10;;;;;;;19.17;52.29;102829.06;5053774;28;20025;-85
2021/10/11 10:57:29;;;;;;;0.10;0.10;;;;;;;19.18;53.15;102820.94;5054480;28;20044;-84
2021/10/11 11:00:00;;;;;;;3.40;1.00;;;;;;;19.03;50.98;102826.72;5036997;28;20025;-85
2021/10/11 11:02:27;;;;;;;0.10;0.10;;;;;;;19.08;53.17;102817.59;5034712;28;20033;-85
2021/10/11 11:07:39;;;;;;;0.10;0.10;;;;;;;19.24;54.00;102819.94;5089571;27;20748;-85
2021/10/11 11:13:03;;;;;;;0.30;0.30;;;;;;;19.25;50.92;102832.41;5088356;27;20397;-87
2021/10/11 11:15:33;;;;;;;0.10;0.10;;;;;;;19.30;49.09;102825.16;5069800;28;20116;-86
2021/10/11 11:18:04;;;;;;;0.10;0.10;;;;;;;19.21;50.47;102814.63;5069387;28;20029;-86
2021/10/11 11:20:33;;;;;;;0.20;0.20;;;;;;;19.07;52.15;102823.91;5059519;28;20472;-85
2021/10/11 11:23:04;;;;;;;0.28;0.28;;;;;;;18.87;49.52;102821.66;5066519;28;20032;-85
2021/10/11 11:25:33;;;;;;;0.10;0.10;;;;;;;18.78;50.41;102827.25;5069153;28;20029;-86
2021/10/11 11:28:02;;;;;;;0.45;0.45;;;;;;;18.85;51.43;102818.09;5069520;28;20036;-86
2021/10/11 11:30:29;;;;;;;0.10;0.10;;;;;;;18.86;49.74;102827.06;5070215;28;20114;-86
2021/10/11 11:33:01;;;;;;;0.10;0.10;;;;;;;18.89;51.57;102829.66;5069904;28;20083;-86